createdAt,value
2018-03-31T00:00:13.093Z,14.50
2018-03-31T00:01:12.627Z,14.80
2018-03-31T00:02:12.445Z,14.50
2018-03-31T00:03:12.479Z,14.30
2018-03-31T00:04:12.356Z,15.00
2018-03-31T00:05:12.312Z,14.60
2018-03-31T00:06:12.258Z,15.20
2018-03-31T00:07:15.209Z,16.80
2018-03-31T00:08:12.184Z,16.40
2018-03-31T00:09:12.160Z,16.10
2018-03-31T00:10:12.146Z,15.60
2018-03-31T00:11:12.094Z,15.20
2018-03-31T00:12:12.050Z,15.90
2018-03-31T00:13:12.021Z,15.00
2018-03-31T00:14:11.966Z,14.20
2018-03-31T00:15:11.975Z,15.80
2018-03-31T00:16:12.596Z,14.80
2018-03-31T00:17:13.671Z,14.70
2018-03-31T00:18:11.778Z,15.30
2018-03-31T00:19:11.782Z,14.50
2018-03-31T00:20:11.749Z,14.90
2018-03-31T00:21:11.695Z,15.20
2018-03-31T00:22:11.618Z,15.10
2018-03-31T00:23:11.567Z,16.60
2018-03-31T00:24:11.523Z,15.70
2018-03-31T00:25:11.554Z,14.60
2018-03-31T00:26:11.511Z,14.60
2018-03-31T00:27:11.633Z,15.40
2018-03-31T00:28:11.361Z,15.70
2018-03-31T00:29:11.376Z,15.80
2018-03-31T00:30:11.310Z,16.10
2018-03-31T00:31:11.340Z,15.90
2018-03-31T00:32:11.254Z,15.20
2018-03-31T00:33:11.303Z,14.90
2018-03-31T00:34:11.225Z,15.30
2018-03-31T00:35:11.085Z,15.40
2018-03-31T00:36:11.091Z,17.20
2018-03-31T00:37:10.993Z,17.60
2018-03-31T00:38:10.978Z,18.70
2018-03-31T00:39:10.913Z,19.00
2018-03-31T00:40:10.911Z,18.80
2018-03-31T00:41:10.839Z,18.00
2018-03-31T00:42:10.805Z,18.10
2018-03-31T00:43:10.747Z,16.20
2018-03-31T00:44:10.733Z,17.50
2018-03-31T00:45:10.693Z,15.60
2018-03-31T00:46:10.669Z,15.30
2018-03-31T00:47:10.608Z,16.60
2018-03-31T00:48:10.550Z,18.20
2018-03-31T00:49:10.499Z,17.20
2018-03-31T00:50:10.545Z,17.90
2018-03-31T00:51:11.099Z,19.00
2018-03-31T00:52:10.390Z,18.30
2018-03-31T00:53:10.397Z,16.80
2018-03-31T00:54:10.298Z,17.40
2018-03-31T00:55:11.097Z,17.90
2018-03-31T00:56:10.276Z,17.80
2018-03-31T00:57:10.184Z,18.10
2018-03-31T00:58:11.106Z,18.20
2018-03-31T00:59:10.106Z,17.60
2018-03-31T01:00:10.060Z,18.80
2018-03-31T01:01:10.085Z,19.20
2018-03-31T01:02:09.974Z,18.90
2018-03-31T01:03:09.975Z,17.70
2018-03-31T01:04:09.899Z,18.70
2018-03-31T01:05:09.856Z,17.30
2018-03-31T01:06:09.796Z,17.50
2018-03-31T01:07:09.767Z,17.20
2018-03-31T01:08:10.601Z,17.20
2018-03-31T01:09:09.752Z,16.60
2018-03-31T01:10:09.762Z,17.40
2018-03-31T01:11:09.615Z,16.50
2018-03-31T01:12:09.646Z,17.60
2018-03-31T01:13:09.538Z,17.60
2018-03-31T01:14:09.515Z,18.50
2018-03-31T01:15:09.473Z,17.80
2018-03-31T01:16:09.393Z,17.10
2018-03-31T01:17:09.364Z,18.40
2018-03-31T01:18:09.352Z,18.40
2018-03-31T01:19:09.275Z,17.90
2018-03-31T01:20:09.252Z,18.90
2018-03-31T01:21:09.195Z,21.20
2018-03-31T01:22:09.154Z,23.20
2018-03-31T01:23:09.108Z,22.00
2018-03-31T01:24:09.068Z,21.70
2018-03-31T01:25:09.074Z,21.70
2018-03-31T01:26:08.978Z,21.60
2018-03-31T01:27:09.072Z,20.90
2018-03-31T01:28:08.916Z,19.70
2018-03-31T01:29:08.866Z,19.40
2018-03-31T01:30:08.851Z,19.20
2018-03-31T01:31:08.792Z,21.70
2018-03-31T01:32:08.748Z,26.60
2018-03-31T01:33:08.723Z,27.90
2018-03-31T01:34:08.652Z,27.00
2018-03-31T01:35:08.694Z,28.30
2018-03-31T01:36:08.575Z,29.40
2018-03-31T01:37:08.580Z,30.20
2018-03-31T01:38:09.108Z,29.80
2018-03-31T01:39:08.445Z,24.50
2018-03-31T01:40:08.512Z,25.40
2018-03-31T01:41:08.436Z,24.90
2018-03-31T01:42:08.374Z,24.40
2018-03-31T01:43:08.319Z,27.20
2018-03-31T01:44:08.309Z,26.70
2018-03-31T01:45:08.241Z,25.90
2018-03-31T01:46:08.173Z,23.60
2018-03-31T01:47:08.204Z,23.80
2018-03-31T01:48:08.075Z,24.30
2018-03-31T01:49:08.054Z,25.80
2018-03-31T01:50:08.028Z,24.50
2018-03-31T01:51:07.984Z,22.90
2018-03-31T01:52:07.945Z,24.60
2018-03-31T01:53:07.964Z,28.20
2018-03-31T01:54:07.867Z,47.00
2018-03-31T01:55:07.821Z,34.00
2018-03-31T01:56:07.819Z,31.20
2018-03-31T01:57:07.815Z,43.10
2018-03-31T01:58:07.683Z,35.00
2018-03-31T01:59:07.672Z,28.90
2018-03-31T02:00:07.591Z,29.10
2018-03-31T02:01:07.569Z,33.00
2018-03-31T02:02:07.501Z,34.90
2018-03-31T02:03:07.475Z,31.80
2018-03-31T02:04:07.468Z,31.70
2018-03-31T02:05:08.116Z,30.10
2018-03-31T02:06:07.380Z,31.30
2018-03-31T02:07:07.324Z,36.30
2018-03-31T02:08:07.262Z,37.00
2018-03-31T02:09:07.253Z,37.80
2018-03-31T02:10:07.225Z,42.70
2018-03-31T02:11:07.129Z,48.80
2018-03-31T02:12:07.110Z,33.80
2018-03-31T02:13:07.061Z,29.30
2018-03-31T02:14:07.617Z,30.40
2018-03-31T02:15:07.010Z,43.20
2018-03-31T02:16:06.969Z,41.90
2018-03-31T02:17:06.938Z,48.00
2018-03-31T02:18:06.864Z,56.60
2018-03-31T02:19:06.823Z,57.40
2018-03-31T02:20:06.789Z,53.50
2018-03-31T02:21:06.779Z,46.60
2018-03-31T02:22:06.817Z,44.70
2018-03-31T02:23:06.638Z,48.00
2018-03-31T02:24:06.631Z,50.20
2018-03-31T02:25:06.599Z,53.80
2018-03-31T02:26:06.539Z,49.90
2018-03-31T02:27:06.491Z,56.30
2018-03-31T02:28:06.496Z,56.50
2018-03-31T02:29:06.471Z,47.40
2018-03-31T02:30:06.371Z,49.30
2018-03-31T02:31:06.328Z,52.60
2018-03-31T02:32:06.322Z,51.60
2018-03-31T02:33:06.261Z,52.80
2018-03-31T02:34:06.232Z,52.30
2018-03-31T02:35:07.118Z,52.30
2018-03-31T02:36:06.193Z,51.60
2018-03-31T02:37:06.099Z,52.80
2018-03-31T02:38:06.020Z,52.60
2018-03-31T02:39:06.041Z,54.40
2018-03-31T02:40:05.942Z,50.70
2018-03-31T02:41:05.905Z,52.10
2018-03-31T02:42:05.893Z,50.30
2018-03-31T02:43:05.920Z,51.70
2018-03-31T02:44:05.818Z,57.80
2018-03-31T02:45:05.780Z,52.10
2018-03-31T02:46:05.725Z,52.10
2018-03-31T02:47:05.653Z,55.20
2018-03-31T02:48:05.657Z,56.40
2018-03-31T02:49:05.597Z,60.60
2018-03-31T02:50:05.607Z,58.20
2018-03-31T02:51:05.530Z,56.90
2018-03-31T02:52:05.460Z,56.50
2018-03-31T02:53:05.433Z,60.50
2018-03-31T02:54:05.388Z,62.60
2018-03-31T02:55:05.351Z,59.60
2018-03-31T02:56:05.284Z,56.00
2018-03-31T02:57:05.271Z,61.60
2018-03-31T02:58:05.228Z,57.30
2018-03-31T02:59:05.192Z,49.40
2018-03-31T03:00:06.138Z,45.40
2018-03-31T03:01:05.107Z,40.60
2018-03-31T03:02:05.115Z,45.80
2018-03-31T03:03:05.625Z,45.30
2018-03-31T03:04:05.001Z,47.50
2018-03-31T03:05:04.957Z,46.40
2018-03-31T03:06:04.915Z,50.00
2018-03-31T03:07:04.835Z,51.40
2018-03-31T03:08:04.897Z,53.80
2018-03-31T03:09:04.792Z,53.20
2018-03-31T03:10:04.827Z,55.20
2018-03-31T03:11:04.670Z,55.50
2018-03-31T03:12:04.678Z,57.00
2018-03-31T03:13:04.631Z,52.70
2018-03-31T03:14:04.564Z,52.40
2018-03-31T03:15:04.509Z,55.30
2018-03-31T03:16:04.563Z,57.20
2018-03-31T03:17:04.431Z,54.80
2018-03-31T03:18:04.443Z,53.80
2018-03-31T03:19:04.414Z,55.70
2018-03-31T03:20:04.310Z,50.30
2018-03-31T03:21:04.277Z,50.50
2018-03-31T03:22:04.291Z,48.60
2018-03-31T03:23:04.256Z,47.20
2018-03-31T03:24:04.162Z,52.00
2018-03-31T03:25:04.160Z,50.90
2018-03-31T03:26:04.048Z,57.00
2018-03-31T03:27:04.031Z,47.60
2018-03-31T03:28:03.993Z,44.50
2018-03-31T03:29:04.032Z,40.50
2018-03-31T03:30:03.970Z,45.10
2018-03-31T03:31:03.883Z,36.20
2018-03-31T03:32:03.828Z,38.20
2018-03-31T03:33:03.801Z,48.40
2018-03-31T03:34:03.760Z,46.90
2018-03-31T03:35:03.713Z,46.40
2018-03-31T03:36:03.680Z,49.70
2018-03-31T03:37:03.638Z,40.00
2018-03-31T03:38:03.613Z,44.60
2018-03-31T03:39:03.528Z,47.30
2018-03-31T03:40:03.522Z,45.70
2018-03-31T03:41:03.559Z,50.90
2018-03-31T03:42:03.432Z,44.50
2018-03-31T03:43:03.378Z,54.60
2018-03-31T03:44:03.339Z,52.80
2018-03-31T03:45:03.339Z,52.80
2018-03-31T03:46:03.298Z,53.70
2018-03-31T03:47:03.210Z,57.80
2018-03-31T03:48:03.190Z,59.50
2018-03-31T03:49:03.301Z,62.90
2018-03-31T03:50:03.124Z,54.80
2018-03-31T03:51:03.079Z,56.10
2018-03-31T03:52:03.016Z,53.80
2018-03-31T03:53:03.020Z,50.20
2018-03-31T03:54:02.934Z,50.00
2018-03-31T03:55:02.902Z,46.00
2018-03-31T03:56:02.859Z,47.10
2018-03-31T03:57:02.816Z,50.00
2018-03-31T03:58:02.775Z,48.90
2018-03-31T03:59:02.746Z,49.10
2018-03-31T04:00:02.691Z,51.40
2018-03-31T04:01:02.656Z,70.10
2018-03-31T04:02:02.594Z,42.90
2018-03-31T04:03:02.553Z,46.10
2018-03-31T04:04:02.514Z,44.50
2018-03-31T04:05:02.482Z,40.10
2018-03-31T04:06:02.422Z,39.20
2018-03-31T04:07:02.553Z,43.70
2018-03-31T04:08:02.368Z,45.10
2018-03-31T04:09:02.353Z,40.10
2018-03-31T04:10:02.281Z,47.50
2018-03-31T04:11:02.233Z,48.00
2018-03-31T04:12:03.137Z,44.30
2018-03-31T04:13:02.187Z,49.60
2018-03-31T04:14:02.110Z,53.50
2018-03-31T04:15:02.087Z,40.80
2018-03-31T04:16:02.079Z,40.80
2018-03-31T04:17:01.990Z,50.30
2018-03-31T04:18:01.960Z,55.00
2018-03-31T04:19:01.909Z,42.60
2018-03-31T04:20:01.852Z,41.70
2018-03-31T04:21:01.865Z,43.90
2018-03-31T04:22:01.802Z,43.00
2018-03-31T04:23:01.750Z,44.90
2018-03-31T04:24:01.704Z,48.80
2018-03-31T04:25:01.686Z,50.80
2018-03-31T04:26:01.673Z,52.00
2018-03-31T04:27:01.573Z,46.80
2018-03-31T04:28:01.557Z,47.60
2018-03-31T04:29:01.518Z,51.70
2018-03-31T04:30:01.452Z,45.30
2018-03-31T04:31:01.441Z,42.50
2018-03-31T04:32:01.398Z,49.20
2018-03-31T04:33:01.330Z,43.80
2018-03-31T04:34:01.361Z,45.60
2018-03-31T04:35:01.276Z,42.20
2018-03-31T04:36:01.223Z,39.70
2018-03-31T04:37:01.179Z,43.90
2018-03-31T04:38:01.170Z,44.20
2018-03-31T04:39:01.132Z,45.40
2018-03-31T04:40:01.054Z,40.40
2018-03-31T04:41:01.048Z,39.80
2018-03-31T04:42:00.971Z,40.00
2018-03-31T04:43:00.932Z,42.20
2018-03-31T04:44:00.906Z,44.40
2018-03-31T04:45:00.849Z,50.80
2018-03-31T04:46:00.802Z,46.40
2018-03-31T04:47:00.817Z,50.00
2018-03-31T04:48:00.734Z,43.10
2018-03-31T04:49:00.684Z,44.00
2018-03-31T04:50:00.634Z,40.30
2018-03-31T04:51:00.600Z,47.50
2018-03-31T04:52:00.578Z,47.60
2018-03-31T04:53:00.526Z,45.70
2018-03-31T04:54:00.520Z,47.40
2018-03-31T04:55:00.465Z,49.40
2018-03-31T04:56:00.415Z,46.10
2018-03-31T04:57:00.373Z,50.80
2018-03-31T04:58:00.321Z,49.40
2018-03-31T04:59:00.273Z,46.80
2018-03-31T05:00:00.260Z,59.80
2018-03-31T05:01:00.176Z,46.00
2018-03-31T05:02:00.161Z,56.60
2018-03-31T05:03:00.139Z,58.90
2018-03-31T05:04:00.110Z,60.50
2018-03-31T05:05:00.065Z,60.60
2018-03-31T05:06:00.017Z,49.30
2018-03-31T05:06:59.993Z,44.40
2018-03-31T05:07:59.901Z,43.20
2018-03-31T05:08:59.927Z,56.50
2018-03-31T05:09:59.873Z,66.40
2018-03-31T05:10:59.772Z,54.60
2018-03-31T05:11:59.751Z,54.40
2018-03-31T05:12:59.760Z,53.00
2018-03-31T05:13:59.696Z,51.60
2018-03-31T05:15:00.153Z,55.80
2018-03-31T05:15:59.604Z,60.40
2018-03-31T05:16:59.525Z,49.00
2018-03-31T05:17:59.498Z,50.40
2018-03-31T05:18:59.489Z,53.90
2018-03-31T05:19:59.456Z,50.80
2018-03-31T05:20:59.428Z,58.30
2018-03-31T05:21:59.328Z,62.70
2018-03-31T05:22:59.298Z,60.30
2018-03-31T05:23:59.253Z,50.70
2018-03-31T05:24:59.249Z,47.50
2018-03-31T05:25:59.187Z,50.30
2018-03-31T05:26:59.137Z,54.20
2018-03-31T05:27:59.091Z,57.30
2018-03-31T05:28:59.084Z,60.60
2018-03-31T05:29:59.035Z,62.40
2018-03-31T05:30:59.014Z,60.20
2018-03-31T05:31:58.980Z,54.50
2018-03-31T05:32:58.916Z,53.60
2018-03-31T05:33:58.861Z,59.40
2018-03-31T05:34:58.816Z,61.60
2018-03-31T05:35:58.772Z,61.00
2018-03-31T05:36:58.713Z,59.90
2018-03-31T05:37:58.692Z,57.00
2018-03-31T05:38:58.674Z,59.50
2018-03-31T05:39:58.791Z,62.60
2018-03-31T05:40:58.673Z,66.70
2018-03-31T05:41:58.655Z,64.20
2018-03-31T05:42:58.523Z,54.50
2018-03-31T05:43:58.466Z,52.00
2018-03-31T05:44:58.702Z,53.20
2018-03-31T05:46:00.384Z,53.80
2018-03-31T05:47:00.324Z,57.10
2018-03-31T05:47:58.414Z,58.10
2018-03-31T05:48:58.300Z,47.70
2018-03-31T05:49:58.199Z,45.40
2018-03-31T05:50:58.193Z,52.30
2018-03-31T05:51:58.110Z,54.50
2018-03-31T05:52:58.079Z,55.20
2018-03-31T05:53:58.041Z,52.60
2018-03-31T05:54:58.015Z,51.80
2018-03-31T05:55:57.989Z,60.30
2018-03-31T05:56:57.907Z,57.50
2018-03-31T05:57:57.901Z,59.90
2018-03-31T05:58:57.862Z,59.50
2018-03-31T05:59:57.798Z,62.00
2018-03-31T06:00:57.785Z,64.00
2018-03-31T06:01:57.728Z,54.10
2018-03-31T06:02:57.680Z,50.00
2018-03-31T06:03:57.619Z,64.80
2018-03-31T06:04:57.605Z,55.30
2018-03-31T06:05:57.551Z,56.80
2018-03-31T06:06:57.538Z,57.40
2018-03-31T06:07:57.466Z,62.20
2018-03-31T06:08:57.491Z,59.10
2018-03-31T06:09:57.424Z,57.70
2018-03-31T06:10:57.439Z,75.50
2018-03-31T06:11:57.305Z,60.90
2018-03-31T06:12:57.296Z,63.40
2018-03-31T06:13:57.235Z,65.30
2018-03-31T06:14:58.809Z,68.00
2018-03-31T06:15:57.157Z,68.90
2018-03-31T06:16:57.106Z,64.10
2018-03-31T06:17:57.063Z,63.00
2018-03-31T06:18:57.060Z,60.20
2018-03-31T06:19:59.112Z,60.40
2018-03-31T06:20:56.973Z,59.20
2018-03-31T06:21:56.932Z,57.70
2018-03-31T06:22:56.937Z,52.00
2018-03-31T06:23:56.828Z,51.40
2018-03-31T06:24:56.805Z,57.10
2018-03-31T06:25:56.749Z,54.60
2018-03-31T06:26:56.721Z,51.10
2018-03-31T06:27:56.724Z,51.60
2018-03-31T06:28:56.654Z,51.50
2018-03-31T06:29:56.622Z,52.00
2018-03-31T06:30:56.574Z,48.80
2018-03-31T06:31:56.504Z,51.60
2018-03-31T06:32:56.494Z,46.30
2018-03-31T06:33:56.454Z,51.10
2018-03-31T06:34:56.385Z,48.10
2018-03-31T06:35:56.349Z,49.40
2018-03-31T06:36:56.309Z,48.00
2018-03-31T06:38:04.740Z,49.40
2018-03-31T06:39:50.903Z,46.60
2018-03-31T06:40:50.067Z,45.30
2018-03-31T06:42:45.306Z,44.70
2018-03-31T06:43:44.594Z,45.10
2018-03-31T06:45:38.769Z,43.80
2018-03-31T06:46:38.531Z,43.10
2018-03-31T06:48:33.944Z,44.50
2018-03-31T06:49:32.689Z,44.30
2018-03-31T06:51:26.289Z,44.70
2018-03-31T06:52:26.028Z,44.70
2018-03-31T06:54:19.722Z,42.90
2018-03-31T06:55:19.244Z,38.90
2018-03-31T06:57:12.149Z,42.10
2018-03-31T06:58:11.770Z,40.90
2018-03-31T07:00:05.611Z,39.30
2018-03-31T07:01:04.816Z,38.50
2018-03-31T07:02:58.668Z,35.30
2018-03-31T07:03:57.981Z,34.40
2018-03-31T07:05:52.022Z,37.20
2018-03-31T07:06:52.300Z,36.10
2018-03-31T07:08:45.320Z,36.20
2018-03-31T07:09:44.579Z,34.30
2018-03-31T07:11:39.672Z,36.00
2018-03-31T07:12:38.252Z,35.10
2018-03-31T07:14:33.790Z,34.20
2018-03-31T07:15:32.611Z,34.40
2018-03-31T07:17:28.335Z,35.60
2018-03-31T07:18:27.122Z,35.00
2018-03-31T07:20:20.106Z,34.20
2018-03-31T07:21:19.910Z,32.30
2018-03-31T07:23:14.974Z,31.40
2018-03-31T07:24:14.823Z,32.30
2018-03-31T07:26:08.357Z,33.20
2018-03-31T07:27:08.951Z,31.40
2018-03-31T07:29:02.142Z,30.90
2018-03-31T07:30:00.910Z,29.30
2018-03-31T07:31:56.734Z,28.50
2018-03-31T07:34:41.930Z,27.90
2018-03-31T07:35:41.594Z,29.00
2018-03-31T07:37:36.651Z,29.00
2018-03-31T07:38:37.583Z,26.60
2018-03-31T07:40:29.978Z,24.50
2018-03-31T07:41:29.091Z,22.20
2018-03-31T07:43:24.711Z,20.60
2018-03-31T07:44:23.158Z,22.50
2018-03-31T07:46:33.152Z,21.40
2018-03-31T07:47:31.620Z,21.80
2018-03-31T07:48:31.827Z,20.50
2018-03-31T07:49:30.769Z,22.30
2018-03-31T07:50:30.765Z,24.00
2018-03-31T07:51:31.400Z,22.80
2018-03-31T07:52:30.833Z,24.00
2018-03-31T07:53:30.619Z,24.80
2018-03-31T07:54:30.599Z,24.40
2018-03-31T07:55:30.577Z,22.50
2018-03-31T07:56:30.547Z,22.70
2018-03-31T07:57:31.278Z,23.90
2018-03-31T07:58:30.652Z,22.30
2018-03-31T07:59:30.544Z,22.40
2018-03-31T08:01:03.351Z,23.30
2018-03-31T08:02:47.667Z,22.10
2018-03-31T08:03:45.837Z,22.40
2018-03-31T08:05:40.116Z,22.40
2018-03-31T08:06:39.408Z,21.20
2018-03-31T08:08:34.064Z,22.30
2018-03-31T08:09:33.988Z,23.40
2018-03-31T08:10:33.149Z,21.20
2018-03-31T08:11:34.243Z,21.80
2018-03-31T08:12:32.898Z,21.30
2018-03-31T08:13:32.810Z,21.10
2018-03-31T08:14:32.804Z,22.70
2018-03-31T08:15:32.786Z,21.90
2018-03-31T08:16:32.742Z,21.90
2018-03-31T08:17:33.289Z,22.70
2018-03-31T08:18:32.625Z,23.60
2018-03-31T08:19:32.596Z,21.60
2018-03-31T08:20:32.566Z,22.50
2018-03-31T08:21:32.504Z,21.50
2018-03-31T08:22:32.493Z,21.30
2018-03-31T08:23:32.486Z,19.60
2018-03-31T08:24:32.420Z,19.50
2018-03-31T08:25:32.508Z,20.30
2018-03-31T08:26:32.716Z,20.30
2018-03-31T08:27:32.328Z,22.20
2018-03-31T08:28:32.290Z,21.30
2018-03-31T08:29:32.235Z,21.90
2018-03-31T08:30:32.215Z,21.70
2018-03-31T08:31:32.161Z,20.70
2018-03-31T08:32:32.165Z,22.10
2018-03-31T08:33:32.069Z,23.40
2018-03-31T08:34:32.057Z,21.50
2018-03-31T08:35:31.966Z,22.90
2018-03-31T08:36:32.013Z,22.70
2018-03-31T08:37:31.878Z,22.80
2018-03-31T08:38:31.856Z,21.00
2018-03-31T08:39:31.971Z,23.40
2018-03-31T08:40:31.781Z,22.40
2018-03-31T08:41:31.764Z,22.00
2018-03-31T08:42:31.694Z,23.10
2018-03-31T08:43:31.651Z,22.10
2018-03-31T08:44:31.625Z,22.00
2018-03-31T08:45:31.581Z,21.30
2018-03-31T08:46:31.525Z,23.10
2018-03-31T08:47:31.554Z,23.00
2018-03-31T08:48:31.461Z,21.10
2018-03-31T08:49:31.411Z,18.90
2018-03-31T08:50:31.396Z,19.90
2018-03-31T08:51:31.329Z,18.80
2018-03-31T08:52:31.312Z,19.50
2018-03-31T08:53:31.302Z,20.70
2018-03-31T08:54:31.258Z,19.80
2018-03-31T08:55:31.163Z,20.00
2018-03-31T08:56:31.155Z,21.00
2018-03-31T08:57:31.070Z,20.40
2018-03-31T08:58:31.086Z,19.70
2018-03-31T08:59:31.010Z,18.70
2018-03-31T09:00:30.991Z,19.90
2018-03-31T09:01:30.918Z,20.10
2018-03-31T09:02:30.887Z,19.10
2018-03-31T09:03:30.867Z,18.70
2018-03-31T09:04:30.874Z,18.50
2018-03-31T09:05:30.761Z,17.10
2018-03-31T09:06:30.745Z,17.90
2018-03-31T09:07:30.700Z,18.90
2018-03-31T09:08:30.639Z,17.60
2018-03-31T09:09:30.614Z,18.30
2018-03-31T09:10:30.584Z,19.50
2018-03-31T09:11:30.538Z,17.80
2018-03-31T09:12:30.500Z,17.70
2018-03-31T09:13:30.469Z,18.60
2018-03-31T09:14:30.420Z,19.00
2018-03-31T09:15:30.387Z,17.90
2018-03-31T09:16:30.342Z,16.80
2018-03-31T09:17:30.317Z,17.50
2018-03-31T09:18:30.263Z,17.80
2018-03-31T09:19:30.242Z,18.30
2018-03-31T09:20:30.174Z,18.70
2018-03-31T09:21:30.158Z,18.20
2018-03-31T09:22:30.098Z,19.50
2018-03-31T09:23:30.044Z,18.30
2018-03-31T09:24:30.183Z,18.60
2018-03-31T09:25:30.003Z,18.50
2018-03-31T09:26:29.968Z,17.40
2018-03-31T09:27:29.921Z,18.10
2018-03-31T09:28:29.890Z,17.30
2018-03-31T09:29:29.834Z,15.80
2018-03-31T09:30:29.772Z,16.20
2018-03-31T09:31:29.753Z,15.70
2018-03-31T09:32:29.708Z,15.80
2018-03-31T09:33:29.656Z,16.00
2018-03-31T09:34:29.627Z,15.40
2018-03-31T09:35:29.614Z,15.80
2018-03-31T09:36:29.553Z,15.10
2018-03-31T09:37:29.523Z,14.90
2018-03-31T09:38:29.496Z,15.70
2018-03-31T09:39:29.454Z,16.60
2018-03-31T09:40:29.418Z,15.50
2018-03-31T09:41:29.350Z,15.40
2018-03-31T09:42:29.316Z,16.10
2018-03-31T09:43:29.265Z,16.40
2018-03-31T09:44:29.239Z,16.00
2018-03-31T09:45:29.191Z,15.00
2018-03-31T09:46:29.146Z,14.80
2018-03-31T09:47:29.131Z,15.30
2018-03-31T09:48:29.056Z,14.50
2018-03-31T09:49:29.045Z,15.70
2018-03-31T09:50:29.048Z,16.00
2018-03-31T09:51:28.942Z,16.10
2018-03-31T09:52:28.909Z,15.90
2018-03-31T09:53:28.884Z,14.70
2018-03-31T09:54:28.825Z,16.00
2018-03-31T09:55:28.783Z,14.20
2018-03-31T09:56:28.748Z,14.70
2018-03-31T09:57:28.719Z,13.70
2018-03-31T09:58:28.684Z,13.70
2018-03-31T09:59:28.636Z,14.40
2018-03-31T10:00:28.599Z,14.80
2018-03-31T10:01:28.538Z,14.50
2018-03-31T10:02:28.571Z,14.80
2018-03-31T10:03:28.541Z,15.60
2018-03-31T10:04:28.423Z,13.80
2018-03-31T10:05:28.388Z,13.50
2018-03-31T10:06:28.349Z,13.90
2018-03-31T10:07:28.311Z,13.70
2018-03-31T10:08:28.293Z,12.30
2018-03-31T10:09:28.255Z,13.00
2018-03-31T10:10:28.194Z,11.80
2018-03-31T10:11:28.151Z,13.40
2018-03-31T10:12:28.184Z,13.40
2018-03-31T10:13:28.177Z,13.20
2018-03-31T10:14:28.047Z,12.20
2018-03-31T10:15:28.029Z,12.40
2018-03-31T10:16:27.957Z,12.90
2018-03-31T10:17:27.915Z,12.90
2018-03-31T10:18:27.883Z,12.60
2018-03-31T10:19:27.909Z,14.40
2018-03-31T10:20:27.895Z,13.50
2018-03-31T10:21:27.759Z,13.20
2018-03-31T10:22:27.907Z,13.50
2018-03-31T10:23:27.692Z,14.00
2018-03-31T10:24:27.680Z,14.40
2018-03-31T10:25:27.608Z,14.00
2018-03-31T10:26:27.577Z,13.10
2018-03-31T10:27:27.574Z,13.40
2018-03-31T10:28:27.572Z,12.30
2018-03-31T10:29:27.447Z,12.60
2018-03-31T10:30:27.430Z,14.30
2018-03-31T10:31:27.390Z,13.50
2018-03-31T10:32:27.364Z,13.40
2018-03-31T10:33:27.320Z,12.70
2018-03-31T10:34:27.265Z,13.40
2018-03-31T10:35:27.278Z,14.00
2018-03-31T10:36:27.209Z,14.30
2018-03-31T10:37:27.149Z,13.50
2018-03-31T10:38:27.141Z,13.10
2018-03-31T10:39:27.104Z,12.70
2018-03-31T10:40:27.054Z,12.80
2018-03-31T10:41:26.995Z,13.10
2018-03-31T10:42:26.966Z,13.60
2018-03-31T10:43:26.913Z,13.80
2018-03-31T10:44:26.880Z,13.20
2018-03-31T10:45:26.847Z,13.20
2018-03-31T10:46:26.818Z,13.50
2018-03-31T10:47:26.828Z,13.70
2018-03-31T10:48:26.735Z,13.30
2018-03-31T10:49:26.697Z,13.70
2018-03-31T10:50:26.646Z,14.00
2018-03-31T10:51:26.624Z,14.20
2018-03-31T10:52:26.612Z,13.90
2018-03-31T10:53:26.566Z,14.10
2018-03-31T10:54:26.528Z,14.40
2018-03-31T10:55:26.483Z,15.20
2018-03-31T10:56:26.462Z,15.10
2018-03-31T10:57:26.386Z,14.80
2018-03-31T10:58:26.358Z,14.40
2018-03-31T10:59:26.360Z,14.50
2018-03-31T11:00:26.279Z,15.10
2018-03-31T11:01:26.238Z,15.20
2018-03-31T11:02:26.203Z,16.20
2018-03-31T11:03:26.157Z,15.20
2018-03-31T11:04:26.167Z,15.00
2018-03-31T11:05:26.085Z,16.90
2018-03-31T11:06:26.045Z,15.30
2018-03-31T11:07:26.009Z,15.80
2018-03-31T11:08:25.982Z,15.60
2018-03-31T11:09:26.008Z,15.50
2018-03-31T11:10:25.911Z,15.50
2018-03-31T11:11:25.874Z,15.40
2018-03-31T11:12:25.940Z,15.80
2018-03-31T11:13:27.479Z,17.20
2018-03-31T11:14:25.782Z,16.20
2018-03-31T11:15:25.695Z,16.50
2018-03-31T11:16:25.662Z,16.20
2018-03-31T11:17:25.627Z,16.50
2018-03-31T11:18:25.615Z,16.20
2018-03-31T11:19:25.547Z,17.30
2018-03-31T11:20:25.504Z,17.00
2018-03-31T11:21:25.480Z,17.20
2018-03-31T11:22:25.435Z,17.20
2018-03-31T11:23:25.401Z,16.40
2018-03-31T11:24:25.345Z,16.60
2018-03-31T11:25:25.493Z,17.60
2018-03-31T11:26:25.339Z,16.90
2018-03-31T11:27:25.251Z,17.20
2018-03-31T11:28:25.463Z,17.70
2018-03-31T11:29:25.177Z,17.30
2018-03-31T11:30:29.294Z,17.40
2018-03-31T11:31:25.741Z,16.50
2018-03-31T11:32:25.069Z,17.10
2018-03-31T11:33:25.077Z,16.70
2018-03-31T11:34:24.992Z,17.40
2018-03-31T11:35:25.877Z,16.80
2018-03-31T11:36:24.911Z,17.00
2018-03-31T11:37:24.913Z,17.70
2018-03-31T11:38:25.775Z,17.00
2018-03-31T11:39:25.355Z,17.90
2018-03-31T11:40:24.772Z,17.50
2018-03-31T11:41:24.771Z,18.10
2018-03-31T11:42:24.845Z,18.00
2018-03-31T11:43:24.701Z,18.10
2018-03-31T11:44:24.616Z,18.60
2018-03-31T11:45:24.581Z,18.50
2018-03-31T11:46:24.543Z,18.60
2018-03-31T11:47:24.498Z,18.30
2018-03-31T11:48:24.447Z,19.10
2018-03-31T11:49:24.423Z,19.20
2018-03-31T11:50:24.382Z,19.60
2018-03-31T11:51:24.347Z,19.00
2018-03-31T11:52:24.347Z,19.70
2018-03-31T11:53:24.290Z,19.50
2018-03-31T11:54:24.237Z,19.10
2018-03-31T11:55:24.184Z,20.60
2018-03-31T11:56:24.171Z,20.30
2018-03-31T11:57:24.170Z,19.90
2018-03-31T11:58:24.564Z,20.10
2018-03-31T11:59:24.067Z,19.70
2018-03-31T12:00:24.020Z,19.90
2018-03-31T12:01:23.996Z,20.40
2018-03-31T12:02:24.638Z,19.80
2018-03-31T12:03:23.889Z,20.20
2018-03-31T12:04:23.864Z,20.80
2018-03-31T12:05:23.847Z,19.90
2018-03-31T12:06:23.837Z,21.40
2018-03-31T12:07:23.773Z,19.80
2018-03-31T12:08:23.778Z,21.10
2018-03-31T12:09:23.673Z,20.60
2018-03-31T12:10:23.663Z,20.00
2018-03-31T12:11:23.615Z,19.90
2018-03-31T12:12:23.593Z,19.90
2018-03-31T12:13:23.523Z,19.20
2018-03-31T12:14:23.487Z,20.20
2018-03-31T12:15:23.447Z,19.80
2018-03-31T12:16:23.415Z,20.40
2018-03-31T12:17:23.363Z,20.70
2018-03-31T12:18:23.352Z,18.90
2018-03-31T12:19:23.389Z,19.30
2018-03-31T12:20:23.319Z,20.40
2018-03-31T12:21:23.232Z,18.30
2018-03-31T12:22:23.190Z,18.70
2018-03-31T12:23:23.147Z,19.30
2018-03-31T12:24:23.102Z,18.20
2018-03-31T12:25:23.089Z,18.30
2018-03-31T12:26:23.017Z,18.60
2018-03-31T12:27:23.004Z,18.50
2018-03-31T12:28:22.965Z,18.10
2018-03-31T12:29:22.924Z,19.50
2018-03-31T12:30:23.013Z,17.40
2018-03-31T12:31:22.931Z,18.70
2018-03-31T12:32:22.809Z,17.70
2018-03-31T12:33:22.821Z,17.80
2018-03-31T12:34:22.741Z,18.30
2018-03-31T12:35:22.693Z,17.60
2018-03-31T12:36:22.657Z,18.40
2018-03-31T12:37:22.648Z,18.80
2018-03-31T12:38:22.585Z,18.40
2018-03-31T12:39:22.539Z,18.70
2018-03-31T12:40:22.528Z,19.40
2018-03-31T12:41:22.484Z,18.30
2018-03-31T12:42:22.455Z,19.10
2018-03-31T12:43:22.407Z,18.40
2018-03-31T12:44:22.454Z,18.40
2018-03-31T12:45:22.315Z,19.00
2018-03-31T12:46:22.285Z,18.50
2018-03-31T12:47:22.231Z,18.00
2018-03-31T12:48:22.240Z,19.00
2018-03-31T12:49:22.180Z,18.70
2018-03-31T12:50:22.141Z,19.60
2018-03-31T12:51:22.109Z,18.80
2018-03-31T12:52:22.058Z,19.30
2018-03-31T12:53:22.023Z,19.70
2018-03-31T12:54:21.983Z,20.00
2018-03-31T12:55:21.972Z,18.70
2018-03-31T12:56:21.928Z,19.40
2018-03-31T12:57:21.880Z,20.00
2018-03-31T12:58:21.836Z,20.50
2018-03-31T12:59:21.813Z,19.00
2018-03-31T13:00:21.769Z,19.40
2018-03-31T13:01:21.716Z,20.00
2018-03-31T13:02:21.733Z,20.10
2018-03-31T13:03:21.628Z,19.00
2018-03-31T13:04:21.628Z,19.30
2018-03-31T13:05:21.617Z,19.30
2018-03-31T13:06:21.551Z,20.20
2018-03-31T13:07:21.496Z,20.20
2018-03-31T13:08:21.988Z,19.50
2018-03-31T13:09:21.423Z,21.00
2018-03-31T13:10:21.359Z,20.00
2018-03-31T13:11:21.330Z,19.90
2018-03-31T13:12:21.315Z,20.90
2018-03-31T13:13:21.316Z,20.90
2018-03-31T13:14:21.263Z,20.80
2018-03-31T13:15:21.180Z,21.80
2018-03-31T13:16:21.200Z,22.20
2018-03-31T13:17:21.141Z,21.60